Time;durP1;ratioP1;P1;durP2;ratioP2;P2;SDS_P1;SDS_P2;PMS_P1;PMS_P2;Temp;Humidity;BMP_temperature;BMP_pressure;BME280_temperature;BME280_humidity;BME280_pressure;Samples;Min_cycle;Max_cycle;Signal;HPM_P1;HPM_P2
2023/08/07 00:02:24;;;;;;;1.12;0.60;;;;;;;20.17;69.24;97334.84;4409700;32;20098;-80
2023/08/07 00:04:51;;;;;;;1.20;0.80;;;;;;;20.46;67.01;97332.16;4409623;32;20435;-80
2023/08/07 00:07:18;;;;;;;1.50;0.70;;;;;;;20.35;67.76;97324.44;4409216;32;20108;-80
2023/08/07 00:09:45;;;;;;;3.62;0.70;;;;;;;20.51;66.43;97332.53;4409550;32;20078;-80
2023/08/07 00:12:11;;;;;;;2.28;0.90;;;;;;;20.24;67.41;97329.88;4409616;32;20094;-80
2023/08/07 00:14:38;;;;;;;3.87;0.70;;;;;;;20.66;64.71;97337.31;4409134;32;20405;-80
2023/08/07 00:17:05;;;;;;;1.42;0.68;;;;;;;20.63;64.43;97334.97;4409270;32;20112;-80
2023/08/07 00:19:32;;;;;;;1.37;0.70;;;;;;;20.37;64.74;97345.25;4411090;32;20140;-80
2023/08/07 00:21:59;;;;;;;2.83;0.80;;;;;;;20.05;66.45;97335.16;4409799;32;20457;-80
2023/08/07 00:24:26;;;;;;;1.62;0.68;;;;;;;19.94;66.71;97336.16;4410133;32;20589;-80
2023/08/07 00:26:53;;;;;;;3.10;0.90;;;;;;;19.85;67.15;97336.97;4410088;32;20153;-80
2023/08/07 00:29:20;;;;;;;2.58;0.70;;;;;;;19.50;69.48;97335.75;4412269;32;20078;-80
2023/08/07 00:31:47;;;;;;;3.17;0.90;;;;;;;19.78;68.63;97336.75;4426489;32;20153;-80
2023/08/07 00:34:14;;;;;;;4.05;0.85;;;;;;;19.87;68.47;97337.66;4426486;32;20548;-80
2023/08/07 00:36:41;;;;;;;3.10;0.70;;;;;;;20.13;67.10;97337.91;4426219;32;20086;-79
2023/08/07 00:39:08;;;;;;;1.77;0.85;;;;;;;19.83;68.73;97339.75;4426593;32;20142;-79
2023/08/07 00:41:35;;;;;;;1.70;0.80;;;;;;;19.69;69.26;97336.75;4426016;32;20437;-79
2023/08/07 00:44:02;;;;;;;1.75;0.68;;;;;;;19.74;69.54;97340.59;4426464;32;20102;-79
2023/08/07 00:46:29;;;;;;;4.55;0.80;;;;;;;19.78;69.25;97341.13;4426250;32;20094;-79
2023/08/07 00:48:56;;;;;;;8.32;1.10;;;;;;;19.85;69.04;97344.84;4412347;32;20440;-79
2023/08/07 00:51:23;;;;;;;3.33;0.93;;;;;;;19.81;68.71;97333.00;4426327;32;20114;-79
2023/08/07 00:53:50;;;;;;;2.75;1.10;;;;;;;19.59;69.68;97334.97;4426428;32;20097;-79
2023/08/07 00:56:17;;;;;;;3.00;0.93;;;;;;;19.93;68.24;97334.50;4425936;32;20581;-79
2023/08/07 00:58:44;;;;;;;4.03;1.00;;;;;;;19.93;68.08;97335.31;4426387;32;20077;-79
2023/08/07 01:01:11;;;;;;;0.95;0.70;;;;;;;20.41;65.89;97344.81;4412458;32;20157;-79
2023/08/07 01:03:38;;;;;;;4.25;0.95;;;;;;;20.17;66.34;97337.47;4425993;32;20116;-79
2023/08/07 01:06:06;;;;;;;2.92;0.80;;;;;;;20.55;64.82;97337.50;4426060;32;20094;-79
2023/08/07 01:08:33;;;;;;;1.67;0.80;;;;;;;19.92;65.98;97338.91;4426431;32;20074;-79
2023/08/07 01:11:21;;;;;;;1.05;0.60;;;;;;;20.02;66.57;97346.75;4412050;32;20157;-79
2023/08/07 01:13:51;;;;;;;3.75;0.88;;;;;;;20.56;63.39;97347.84;4426232;32;20106;-79
2023/08/07 01:16:22;;;;;;;2.55;0.68;;;;;;;20.91;61.54;97352.34;4426065;32;20101;-79
2023/08/07 01:18:49;;;;;;;2.53;0.82;;;;;;;20.71;62.03;97350.78;4412212;32;20151;-79
2023/08/07 01:21:20;;;;;;;2.12;0.65;;;;;;;20.50;62.62;97351.03;4412230;32;20125;-79
2023/08/07 01:23:47;;;;;;;1.95;0.68;;;;;;;20.24;63.67;97356.06;4425951;32;20115;-79
2023/08/07 01:26:19;;;;;;;3.90;1.00;;;;;;;20.11;63.82;97355.56;4412159;32;20470;-79
2023/08/07 01:28:59;;;;;;;1.62;0.80;;;;;;;19.59;65.97;97349.84;4412263;32;20483;-79
2023/08/07 01:31:27;;;;;;;1.12;0.80;;;;;;;19.57;66.26;97354.38;4425572;32;20112;-79
2023/08/07 01:33:58;;;;;;;1.98;0.82;;;;;;;19.34;67.54;97351.16;4412318;32;20433;-79
2023/08/07 01:36:28;;;;;;;1.55;0.75;;;;;;;19.17;68.45;97352.69;4412355;32;20085;-79
2023/08/07 01:38:57;;;;;;;1.20;0.70;;;;;;;19.00;69.79;97354.16;4412078;32;20502;-79
2023/08/07 01:41:25;;;;;;;6.93;1.70;;;;;;;19.08;69.13;97345.62;4412276;32;20165;-79
2023/08/07 01:43:52;;;;;;;6.30;0.82;;;;;;;18.87;69.79;97345.75;4426133;32;20192;-79
2023/08/07 01:46:20;;;;;;;1.67;0.77;;;;;;;18.92;68.95;97350.56;4425504;32;20379;-79
2023/08/07 01:48:47;;;;;;;3.70;0.70;;;;;;;18.97;68.57;97358.84;4426130;32;20073;-79
2023/08/07 01:51:13;;;;;;;1.17;0.75;;;;;;;19.01;68.37;97354.97;4426044;32;20444;-79
2023/08/07 01:53:40;;;;;;;1.23;0.70;;;;;;;18.87;69.01;97352.75;4425709;32;20112;-79
2023/08/07 01:56:07;;;;;;;1.77;0.65;;;;;;;18.90;68.12;97353.31;4425761;32;20158;-79
2023/08/07 01:58:34;;;;;;;0.95;0.60;;;;;;;18.57;69.61;97349.19;4411863;32;20093;-79
2023/08/07 02:01:01;;;;;;;3.33;0.70;;;;;;;18.92;68.02;97350.56;4412138;32;20474;-79
2023/08/07 02:03:28;;;;;;;1.23;0.55;;;;;;;18.86;67.69;97351.94;4412187;32;20118;-79
2023/08/07 02:05:55;;;;;;;2.28;0.68;;;;;;;18.48;68.22;97349.97;4425370;32;20094;-79
2023/08/07 02:08:22;;;;;;;0.68;0.52;;;;;;;18.19;68.74;97355.91;4425840;32;20086;-79
2023/08/07 02:10:49;;;;;;;1.55;0.65;;;;;;;17.98;69.17;97355.09;4425815;32;20236;-79
2023/08/07 02:13:16;;;;;;;2.17;0.73;;;;;;;18.23;67.53;97355.66;4425628;32;20182;-79
2023/08/07 02:15:43;;;;;;;3.85;0.62;;;;;;;18.10;68.32;97364.50;4425807;32;20077;-79
2023/08/07 02:18:10;;;;;;;6.93;1.10;;;;;;;18.30;67.89;97364.63;4425781;32;20111;-79
2023/08/07 02:20:37;;;;;;;2.78;0.70;;;;;;;18.18;67.86;97353.41;4425384;32;20116;-79
2023/08/07 02:23:04;;;;;;;4.22;0.80;;;;;;;18.02;67.95;97353.88;4412014;32;20102;-79
2023/08/07 02:25:31;;;;;;;3.72;0.70;;;;;;;18.24;66.81;97350.28;4425610;32;20114;-79
2023/08/07 02:27:58;;;;;;;4.87;1.15;;;;;;;18.47;65.12;97346.53;4425441;32;20069;-79
2023/08/07 02:30:25;;;;;;;3.03;0.70;;;;;;;18.16;66.38;97337.03;4425460;32;20455;-79
2023/08/07 02:32:51;;;;;;;1.95;0.62;;;;;;;17.53;68.97;97342.25;4425754;32;20093;-79
2023/08/07 02:35:18;;;;;;;1.15;0.70;;;;;;;17.78;68.30;97338.50;4425293;32;20078;-79
2023/08/07 02:37:45;;;;;;;1.87;0.57;;;;;;;18.11;66.64;97334.84;4425742;32;20082;-79
2023/08/07 02:40:15;;;;;;;3.25;0.68;;;;;;;18.35;65.37;97326.69;4411349;32;20124;-80
2023/08/07 02:42:42;;;;;;;1.10;0.65;;;;;;;18.89;63.42;97322.06;4425262;32;20116;-80
2023/08/07 02:45:09;;;;;;;3.83;0.75;;;;;;;19.10;62.41;97324.59;4425410;32;20330;-80
2023/08/07 02:47:36;;;;;;;2.45;0.70;;;;;;;19.04;62.58;97333.81;4425601;32;20160;-80
2023/08/07 02:50:04;;;;;;;9.50;0.80;;;;;;;19.69;59.72;97339.38;4425315;32;20488;-80
2023/08/07 02:52:31;;;;;;;1.92;0.70;;;;;;;19.86;58.50;97342.06;4425547;32;20157;-80
2023/08/07 02:54:58;;;;;;;0.73;0.50;;;;;;;19.58;59.07;97341.16;4425256;32;20153;-80
2023/08/07 02:57:25;;;;;;;0.90;0.43;;;;;;;19.84;57.77;97349.25;4425498;32;20531;-80
2023/08/07 02:59:52;;;;;;;0.90;0.40;;;;;;;19.96;57.26;97351.72;4425508;32;20128;-80
2023/08/07 03:02:19;;;;;;;2.22;0.50;;;;;;;19.29;58.84;97353.38;4425227;32;20101;-80
2023/08/07 03:04:46;;;;;;;1.95;0.40;;;;;;;19.42;58.03;97355.72;4425487;32;20085;-80
2023/08/07 03:07:13;;;;;;;1.98;0.95;;;;;;;18.58;60.12;97358.69;4411722;32;20102;-80
2023/08/07 03:09:40;;;;;;;3.08;0.50;;;;;;;18.31;61.03;97351.44;4425237;32;20111;-80
2023/08/07 03:12:07;;;;;;;1.45;0.52;;;;;;;19.07;58.60;97357.88;4425558;32;20098;-80
2023/08/07 03:14:34;;;;;;;0.73;0.40;;;;;;;19.49;57.15;97354.22;4425468;32;20086;-80
2023/08/07 03:17:01;;;;;;;0.80;0.50;;;;;;;19.13;57.09;97358.28;4424984;32;20502;-80
2023/08/07 03:19:29;;;;;;;2.85;0.50;;;;;;;19.39;55.81;97359.44;4425398;32;20093;-80
2023/08/07 03:21:56;;;;;;;2.22;0.45;;;;;;;18.84;57.67;97366.94;4425443;32;20094;-80
2023/08/07 03:24:22;;;;;;;1.67;0.60;;;;;;;19.22;57.13;97363.53;4425077;32;20085;-80
2023/08/07 03:26:49;;;;;;;0.80;0.45;;;;;;;18.99;57.63;97370.81;4425253;32;20129;-80
2023/08/07 03:29:16;;;;;;;2.95;0.40;;;;;;;19.51;56.17;97373.22;4425263;32;20097;-80
2023/08/07 03:31:43;;;;;;;0.90;0.40;;;;;;;19.10;57.08;97374.25;4425023;32;20090;-80
2023/08/07 03:34:10;;;;;;;0.60;0.40;;;;;;;19.46;56.08;97381.47;4425264;32;20090;-80
2023/08/07 03:36:38;;;;;;;2.55;0.50;;;;;;;19.75;54.72;97391.12;4425169;32;20077;-80
2023/08/07 03:39:04;;;;;;;10.15;0.77;;;;;;;19.55;54.96;97387.66;4425050;32;20492;-80
2023/08/07 03:41:31;;;;;;;1.73;0.40;;;;;;;19.61;54.53;97387.97;4425200;32;20102;-80
2023/08/07 03:43:58;;;;;;;1.73;0.30;;;;;;;19.68;54.63;97388.25;4424951;32;20100;-80
2023/08/07 03:46:25;;;;;;;2.30;0.57;;;;;;;19.34;55.76;97393.00;4424997;32;20424;-80
2023/08/07 03:48:52;;;;;;;1.17;0.50;;;;;;;18.79;57.54;97393.44;4425232;32;20196;-80
2023/08/07 03:51:19;;;;;;;1.85;0.50;;;;;;;18.89;57.95;97393.47;4424766;32;20115;-80
2023/08/07 03:53:46;;;;;;;1.05;0.40;;;;;;;19.13;57.21;97398.34;4425156;32;20104;-80
2023/08/07 03:56:13;;;;;;;3.55;1.45;;;;;;;19.25;56.81;97389.44;4411218;32;20077;-80
2023/08/07 03:58:41;;;;;;;1.10;0.47;;;;;;;19.66;55.97;97395.41;4424657;32;20102;-80
2023/08/07 04:01:08;;;;;;;1.80;0.60;;;;;;;19.23;57.82;97386.13;4424974;32;20102;-80
2023/08/07 04:03:35;;;;;;;0.65;0.37;;;;;;;19.09;58.92;97381.28;4425045;32;20094;-80
2023/08/07 04:06:05;;;;;;;0.85;0.70;;;;;;;19.54;57.20;97386.00;4424545;32;20108;-80
2023/08/07 04:08:32;;;;;;;1.25;0.50;;;;;;;19.71;56.47;97384.53;4411171;32;20423;-80
2023/08/07 04:11:04;;;;;;;3.20;0.55;;;;;;;19.58;56.69;97390.06;4424837;32;20568;-80
2023/08/07 04:13:31;;;;;;;0.40;0.40;;;;;;;20.39;54.74;97395.72;4424648;32;20431;-80
2023/08/07 04:16:00;;;;;;;0.85;0.40;;;;;;;20.84;53.16;97397.62;4424899;32;20490;-80
2023/08/07 04:18:27;;;;;;;4.62;0.60;;;;;;;21.43;51.41;97394.56;4411088;32;20220;-80
2023/08/07 04:20:55;;;;;;;1.83;0.50;;;;;;;21.80;50.27;97399.69;4424318;32;20163;-80
2023/08/07 04:23:23;;;;;;;2.85;0.50;;;;;;;21.97;49.62;97402.41;4410793;32;20415;-80
2023/08/07 04:25:51;;;;;;;0.55;0.30;;;;;;;22.32;48.50;97412.06;4424489;32;20455;-80
2023/08/07 04:28:19;;;;;;;1.05;0.55;;;;;;;22.32;48.74;97414.69;4424506;32;20165;-80
2023/08/07 04:30:50;;;;;;;1.95;0.37;;;;;;;22.13;48.98;97416.53;4424322;32;20501;-80
2023/08/07 04:33:18;;;;;;;0.65;0.37;;;;;;;23.05;47.20;97413.28;4424386;32;20101;-80
2023/08/07 04:35:46;;;;;;;1.70;0.40;;;;;;;23.65;46.21;97413.16;4424463;32;20148;-80
2023/08/07 04:38:14;;;;;;;1.27;0.40;;;;;;;24.10;45.49;97419.75;4424461;32;20437;-80
2023/08/07 04:40:48;;;;;;;1.40;0.52;;;;;;;25.01;43.40;97423.88;4424015;32;20169;-80
2023/08/07 04:43:15;;;;;;;4.97;0.60;;;;;;;;;;4424519;32;20121;-80
2023/08/07 04:45:44;;;;;;;3.08;0.57;;;;;;;26.50;40.13;97432.31;4424314;32;20591;-80
2023/08/07 04:48:12;;;;;;;0.90;0.40;;;;;;;27.13;38.05;97441.56;4423903;32;20093;-80
2023/08/07 04:50:40;;;;;;;2.28;0.45;;;;;;;28.02;37.28;97434.19;4424216;32;20140;-80
2023/08/07 04:53:07;;;;;;;0.40;0.40;;;;;;;28.30;36.40;97422.84;4424202;32;20086;-80
2023/08/07 04:55:34;;;;;;;3.70;0.70;;;;;;;28.99;35.11;97425.53;4423798;32;20155;-80
2023/08/07 04:58:01;;;;;;;1.30;0.50;;;;;;;29.44;34.46;97418.75;4424232;32;20150;-80
2023/08/07 05:00:28;;;;;;;4.62;1.40;;;;;;;30.10;33.31;97432.25;4424125;32;20132;-80
2023/08/07 05:02:55;;;;;;;0.50;0.50;;;;;;;30.42;33.08;97429.78;4423826;32;20094;-80
2023/08/07 05:05:23;;;;;;;1.65;0.43;;;;;;;30.63;32.85;97426.09;4425872;32;20510;-80
2023/08/07 05:07:50;;;;;;;2.00;0.50;;;;;;;30.52;33.40;97423.03;4426291;32;20197;-80
2023/08/07 05:10:17;;;;;;;1.48;0.50;;;;;;;31.15;32.29;97426.97;4426258;32;20098;-80
2023/08/07 05:12:44;;;;;;;1.52;0.65;;;;;;;30.64;32.69;97417.91;4412471;32;20444;-80
2023/08/07 05:15:11;;;;;;;3.40;0.68;;;;;;;30.31;33.93;97425.09;4426077;32;20086;-79
2023/08/07 05:17:38;;;;;;;1.50;0.50;;;;;;;30.80;33.41;97430.75;4426279;32;20113;-78
2023/08/07 05:20:06;;;;;;;2.78;0.50;;;;;;;30.81;33.08;97432.41;4426226;32;20106;-78
2023/08/07 05:22:33;;;;;;;1.48;0.40;;;;;;;30.29;33.40;97427.13;4426059;32;20104;-79
2023/08/07 05:25:00;;;;;;;0.30;0.30;;;;;;;30.55;32.91;97436.94;4426245;32;20085;-78
2023/08/07 05:27:27;;;;;;;3.25;0.50;;;;;;;31.26;31.52;97434.31;4426170;32;20090;-80
2023/08/07 05:29:54;;;;;;;1.55;0.50;;;;;;;31.03;31.50;97429.47;4425433;32;20173;-80
2023/08/07 05:32:21;;;;;;;2.15;0.40;;;;;;;30.70;30.66;97433.03;4426164;32;20077;-82
2023/08/07 05:34:48;;;;;;;2.33;0.45;;;;;;;30.66;31.27;97420.38;4426270;32;20112;-82
2023/08/07 05:37:15;;;;;;;2.47;0.65;;;;;;;30.62;31.49;97429.75;4426010;32;20146;-81
2023/08/07 05:39:42;;;;;;;0.25;0.25;;;;;;;30.86;30.32;97430.97;4427320;32;20114;-81
2023/08/07 05:42:10;;;;;;;1.37;0.40;;;;;;;30.18;30.19;97428.53;4426054;32;20169;-81
2023/08/07 05:44:39;;;;;;;1.45;0.55;;;;;;;29.55;31.58;97425.37;4421894;32;20185;-81
2023/08/07 05:47:08;;;;;;;0.30;0.30;;;;;;;28.89;32.18;97433.03;4425431;32;20168;-81
2023/08/07 05:49:35;;;;;;;1.65;0.50;;;;;;;28.23;33.06;97428.06;4426923;32;20108;-80
2023/08/07 05:52:03;;;;;;;2.05;0.60;;;;;;;27.89;34.46;97428.78;4425147;32;20139;-80
2023/08/07 05:54:29;;;;;;;0.45;0.45;;;;;;;26.91;37.20;97434.53;4424989;32;20099;-81
2023/08/07 05:56:56;;;;;;;4.00;0.50;;;;;;;27.60;36.38;97440.28;4424561;32;20169;-81
2023/08/07 05:59:23;;;;;;;0.35;0.35;;;;;;;27.87;36.40;97447.53;4424624;32;20141;-81
2023/08/07 06:01:51;;;;;;;0.37;0.37;;;;;;;27.78;37.71;97447.84;4425261;32;20104;-81
2023/08/07 06:04:18;;;;;;;1.95;0.60;;;;;;;28.73;35.64;97440.28;4425033;32;20081;-81
2023/08/07 06:06:45;;;;;;;3.22;0.50;;;;;;;29.12;33.65;97443.38;4425062;32;20090;-81
2023/08/07 06:09:14;;;;;;;0.40;0.40;;;;;;;27.64;35.48;97441.53;4426686;32;20097;-81
2023/08/07 06:11:41;;;;;;;1.33;0.40;;;;;;;27.80;36.03;97445.81;4432602;32;20106;-81
2023/08/07 06:14:08;;;;;;;0.50;0.40;;;;;;;27.28;35.70;97442.38;4431361;32;20109;-81
2023/08/07 06:16:35;;;;;;;1.65;0.50;;;;;;;26.89;35.99;97445.28;4424290;32;20114;-80
2023/08/07 06:19:03;;;;;;;2.65;0.60;;;;;;;26.46;37.12;97446.91;4429754;32;20162;-82
2023/08/07 06:21:42;;;;;;;3.70;0.57;;;;;;;26.21;38.75;97455.03;4437989;32;20080;-84
2023/08/07 06:24:09;;;;;;;0.90;0.40;;;;;;;26.70;37.30;97449.31;4440214;32;20074;-83
2023/08/07 06:26:37;;;;;;;0.30;0.30;;;;;;;26.96;37.03;97445.38;4438629;32;20705;-82
2023/08/07 06:29:04;;;;;;;0.77;0.32;;;;;;;26.37;37.99;97451.47;4432690;32;20094;-82
2023/08/07 06:31:31;;;;;;;1.40;0.30;;;;;;;26.53;39.22;97448.66;4434658;32;20114;-82
2023/08/07 06:33:59;;;;;;;1.23;0.43;;;;;;;26.76;38.29;97445.94;4437937;32;20093;-83
2023/08/07 06:36:26;;;;;;;1.08;0.40;;;;;;;27.09;36.81;97445.59;4438539;32;20079;-82
2023/08/07 06:38:53;;;;;;;1.48;0.50;;;;;;;27.10;35.98;97444.56;4421444;32;140797;-79
2023/08/07 06:41:20;;;;;;;2.40;0.55;;;;;;;27.25;35.99;97444.56;4424675;32;20141;-79
2023/08/07 06:43:47;;;;;;;0.47;0.37;;;;;;;27.14;36.13;97451.16;4425198;32;20112;-79
2023/08/07 06:46:14;;;;;;;0.28;0.28;;;;;;;27.75;37.32;97450.84;4424295;32;20152;-80
2023/08/07 06:48:41;;;;;;;1.77;0.45;;;;;;;27.65;34.78;97443.22;4425087;32;20089;-79
2023/08/07 06:51:08;;;;;;;0.52;0.28;;;;;;;27.78;38.04;97451.31;4424283;32;20165;-78
2023/08/07 06:53:35;;;;;;;1.45;0.50;;;;;;;27.72;35.24;97444.09;4424638;32;20097;-80
2023/08/07 06:56:02;;;;;;;0.45;0.30;;;;;;;27.56;35.48;97450.44;4424830;32;20165;-80
2023/08/07 06:58:29;;;;;;;1.95;0.43;;;;;;;28.27;35.82;97450.53;4424647;32;20112;-80
2023/08/07 07:00:56;;;;;;;1.65;0.40;;;;;;;27.73;35.18;97463.47;4424334;32;20111;-79
2023/08/07 07:03:28;;;;;;;1.37;0.50;;;;;;;28.06;35.04;97469.91;4424792;32;20129;-79
2023/08/07 07:05:55;;;;;;;0.88;0.25;;;;;;;27.43;36.54;97457.41;4424802;32;20141;-79
2023/08/07 07:08:23;;;;;;;0.20;0.20;;;;;;;26.09;38.11;97468.84;4424472;32;20165;-79
2023/08/07 07:10:50;;;;;;;1.12;0.40;;;;;;;25.98;36.27;97474.56;4424533;32;20172;-80
2023/08/07 07:13:17;;;;;;;0.50;0.40;;;;;;;25.96;36.39;97472.09;4424910;32;20129;-79
2023/08/07 07:15:44;;;;;;;0.32;0.32;;;;;;;25.56;36.12;97470.50;4424383;32;20158;-79
2023/08/07 07:18:11;;;;;;;0.50;0.40;;;;;;;25.93;35.95;97470.59;4425273;32;20129;-79
2023/08/07 07:20:37;;;;;;;1.35;0.30;;;;;;;25.79;34.66;97478.47;4424211;32;20613;-79
2023/08/07 07:23:05;;;;;;;0.82;0.43;;;;;;;25.95;34.14;97481.03;4424446;32;20111;-79
2023/08/07 07:25:32;;;;;;;1.98;0.40;;;;;;;26.30;34.72;97484.06;4410893;32;20125;-79
2023/08/07 07:27:59;;;;;;;0.35;0.35;;;;;;;25.90;34.93;97488.63;4410266;32;20127;-79
2023/08/07 07:30:26;;;;;;;0.95;0.40;;;;;;;26.86;33.61;97488.00;4423694;32;20082;-79
2023/08/07 07:32:54;;;;;;;0.60;0.40;;;;;;;26.75;34.58;97488.44;4424705;32;20525;-79
2023/08/07 07:35:21;;;;;;;0.85;0.20;;;;;;;27.28;34.30;97490.03;4424301;32;20109;-79
2023/08/07 07:37:48;;;;;;;0.40;0.40;;;;;;;28.24;30.72;97485.41;4424236;32;20113;-80
2023/08/07 07:40:15;;;;;;;0.55;0.30;;;;;;;27.72;31.73;97491.00;4424209;32;20178;-80
2023/08/07 07:42:42;;;;;;;0.30;0.30;;;;;;;27.44;30.73;97493.50;4424237;32;20170;-79
2023/08/07 07:45:09;;;;;;;0.30;0.30;;;;;;;27.01;33.25;97495.94;4424357;32;20518;-81
2023/08/07 07:47:36;;;;;;;0.98;0.40;;;;;;;25.10;36.98;97496.78;4424131;32;20082;-82
2023/08/07 07:50:08;;;;;;;0.25;0.25;;;;;;;26.39;35.61;97505.00;4424505;32;20100;-81
2023/08/07 07:52:35;;;;;;;0.90;0.30;;;;;;;26.51;36.18;97505.38;4424401;32;20093;-82
2023/08/07 07:55:02;;;;;;;1.25;0.35;;;;;;;26.96;34.90;97512.38;4424302;32;20089;-81
2023/08/07 07:57:29;;;;;;;1.00;0.30;;;;;;;26.67;35.43;97504.41;4423687;32;20149;-81
2023/08/07 07:59:56;;;;;;;0.20;0.20;;;;;;;26.81;34.30;97515.03;4423365;32;20152;-80
2023/08/07 08:02:26;;;;;;;0.35;0.30;;;;;;;26.31;34.87;97509.50;4424092;32;20077;-81
2023/08/07 08:04:53;;;;;;;1.62;0.30;;;;;;;26.22;35.16;97520.12;4423589;32;20448;-79
2023/08/07 08:07:20;;;;;;;0.55;0.30;;;;;;;26.15;35.70;97521.00;4424167;32;20089;-80
2023/08/07 08:09:52;;;;;;;0.37;0.37;;;;;;;26.13;34.51;97523.81;4423191;32;20101;-80
2023/08/07 08:12:24;;;;;;;0.75;0.40;;;;;;;26.00;34.86;97533.34;4424165;32;20442;-79
2023/08/07 08:14:52;;;;;;;0.30;0.30;;;;;;;25.22;35.80;97528.91;4424185;32;20108;-79
2023/08/07 08:17:39;;;;;;;0.57;0.37;;;;;;;24.90;36.42;97541.16;4423585;32;20354;-81
2023/08/07 08:20:07;;;;;;;1.55;0.30;;;;;;;25.08;37.79;97536.50;4423144;32;20139;-79
2023/08/07 08:22:34;;;;;;;0.37;0.32;;;;;;;24.44;38.50;97526.84;4423938;32;20090;-78
2023/08/07 08:25:01;;;;;;;0.75;0.45;;;;;;;24.03;37.54;97518.91;4423412;32;20574;-78
2023/08/07 08:27:29;;;;;;;1.98;0.30;;;;;;;24.35;37.95;97517.28;4423608;32;20098;-79
2023/08/07 08:29:56;;;;;;;0.52;0.40;;;;;;;24.04;39.56;97522.38;4422443;32;20108;-80
2023/08/07 08:32:23;;;;;;;0.98;0.40;;;;;;;23.73;40.47;97527.41;4423352;32;20432;-79
2023/08/07 08:34:50;;;;;;;2.22;0.47;;;;;;;24.06;39.46;97525.66;4423836;32;20428;-79
2023/08/07 08:37:17;;;;;;;0.47;0.30;;;;;;;24.08;39.83;97535.03;4423581;32;20513;-79
2023/08/07 08:39:44;;;;;;;1.45;0.40;;;;;;;24.92;38.97;97535.72;4423751;32;20172;-78
2023/08/07 08:42:14;;;;;;;1.55;0.55;;;;;;;23.86;41.24;97540.94;4425619;32;20103;-79
2023/08/07 08:44:46;;;;;;;3.80;0.60;;;;;;;23.09;43.38;97546.19;4425801;32;20094;-78
2023/08/07 08:47:14;;;;;;;0.60;0.40;;;;;;;23.70;40.99;97560.13;4425043;32;20470;-80
2023/08/07 08:49:47;;;;;;;0.85;0.35;;;;;;;23.31;41.12;97560.63;4425098;32;20147;-79
2023/08/07 08:52:21;;;;;;;0.43;0.32;;;;;;;24.09;41.19;97562.22;4412149;32;20069;-78
2023/08/07 08:54:49;;;;;;;2.47;0.37;;;;;;;23.14;41.38;97566.78;4425308;32;20102;-79
2023/08/07 08:57:17;;;;;;;0.30;0.30;;;;;;;23.62;39.85;97574.12;4424954;32;20159;-79
2023/08/07 08:59:44;;;;;;;0.43;0.30;;;;;;;23.67;39.67;97585.00;4410835;32;20525;-79
2023/08/07 09:02:11;;;;;;;0.52;0.30;;;;;;;23.56;39.22;97585.25;4425339;32;20105;-80
2023/08/07 09:04:38;;;;;;;0.80;0.40;;;;;;;24.27;38.04;97580.53;4411626;32;20161;-79
2023/08/07 09:07:06;;;;;;;0.35;0.28;;;;;;;24.27;38.13;97583.19;4425805;32;20106;-78
2023/08/07 09:09:33;;;;;;;2.60;0.50;;;;;;;24.91;38.21;97590.31;4412428;32;20094;-78
2023/08/07 09:12:01;;;;;;;1.42;0.50;;;;;;;23.68;39.79;97591.06;4425537;32;20145;-79
2023/08/07 09:14:31;;;;;;;1.48;0.40;;;;;;;24.40;37.88;97594.91;4412759;32;20144;-79
2023/08/07 09:16:59;;;;;;;0.40;0.40;;;;;;;25.20;37.20;97589.81;4427814;32;20113;-79
2023/08/07 09:19:27;;;;;;;0.50;0.50;;;;;;;24.04;38.79;97594.34;4411248;32;20495;-78
2023/08/07 09:21:53;;;;;;;0.30;0.30;;;;;;;24.23;39.21;97593.19;4411627;32;20078;-78
2023/08/07 09:24:22;;;;;;;0.30;0.30;;;;;;;24.29;39.58;97592.56;4425708;32;20113;-78
2023/08/07 09:26:51;;;;;;;0.43;0.30;;;;;;;23.90;40.41;97603.66;4425252;32;20416;-78
2023/08/07 09:29:18;;;;;;;0.50;0.50;;;;;;;24.79;39.25;97602.19;4411156;32;20098;-79
2023/08/07 09:31:48;;;;;;;0.65;0.45;;;;;;;24.24;39.57;97600.13;4411579;32;20073;-79
2023/08/07 09:34:19;;;;;;;2.10;0.40;;;;;;;23.22;42.90;97610.75;4425276;32;20116;-78
2023/08/07 09:36:46;;;;;;;1.73;0.55;;;;;;;22.65;43.52;97607.66;4411252;32;20476;-78
2023/08/07 09:39:14;;;;;;;3.28;0.55;;;;;;;21.95;47.48;97612.69;4425404;32;20408;-78
2023/08/07 09:41:41;;;;;;;1.58;0.57;;;;;;;22.89;47.88;97626.31;4425042;32;20124;-78
2023/08/07 09:44:10;;;;;;;0.47;0.47;;;;;;;22.37;48.80;97627.94;4425276;32;20097;-82
2023/08/07 09:46:44;;;;;;;2.40;0.50;;;;;;;22.08;50.23;97636.84;4425147;32;20128;-78
2023/08/07 09:49:12;;;;;;;0.30;0.30;;;;;;;22.60;50.03;97638.84;4411194;32;20116;-78
2023/08/07 09:51:43;;;;;;;0.52;0.50;;;;;;;22.26;50.60;97636.06;4410840;32;20120;-79
2023/08/07 09:54:10;;;;;;;3.00;0.50;;;;;;;22.76;50.58;97639.81;4424960;32;20116;-79
2023/08/07 09:56:38;;;;;;;0.40;0.40;;;;;;;22.61;51.06;97637.84;4424457;32;20107;-76
2023/08/07 09:59:06;;;;;;;3.58;0.50;;;;;;;22.10;51.41;97641.94;4425341;32;20082;-78
2023/08/07 10:01:32;;;;;;;0.68;0.32;;;;;;;22.40;49.25;97641.59;4411316;32;20090;-79
2023/08/07 10:04:00;;;;;;;0.30;0.30;;;;;;;22.61;48.81;97645.75;4410651;32;20166;-78
2023/08/07 10:06:27;;;;;;;0.55;0.52;;;;;;;23.54;45.83;97647.78;4425024;32;20093;-77
2023/08/07 10:08:55;;;;;;;0.62;0.37;;;;;;;22.96;46.07;97648.38;4424625;32;20081;-78
2023/08/07 10:11:22;;;;;;;0.50;0.30;;;;;;;22.85;46.12;97651.25;4410525;32;20085;-77
2023/08/07 10:13:49;;;;;;;1.00;0.40;;;;;;;21.88;46.99;97653.66;4410688;32;20110;-76
2023/08/07 10:16:16;;;;;;;0.90;0.30;;;;;;;22.04;47.04;97656.47;4411016;32;20172;-77
2023/08/07 10:18:43;;;;;;;0.43;0.25;;;;;;;21.64;46.25;97641.03;4424782;32;20433;-76
2023/08/07 10:21:10;;;;;;;0.10;0.10;;;;;;;21.88;46.81;97661.53;4424350;32;20098;-79
2023/08/07 10:23:38;;;;;;;0.62;0.20;;;;;;;22.38;45.64;97671.66;4410240;32;20106;-78
2023/08/07 10:26:08;;;;;;;0.62;0.30;;;;;;;22.04;46.13;97667.00;4410971;32;20128;-78
2023/08/07 10:28:37;;;;;;;0.68;0.30;;;;;;;22.93;45.88;97664.47;4411366;32;20103;-78
2023/08/07 10:31:06;;;;;;;0.50;0.28;;;;;;;21.65;46.17;97664.53;4410363;32;20275;-78
2023/08/07 10:33:33;;;;;;;0.47;0.22;;;;;;;22.59;46.05;97659.03;4410535;32;20400;-77
2023/08/07 10:36:00;;;;;;;0.10;0.10;;;;;;;22.96;43.21;97668.59;4424702;32;20097;-78
2023/08/07 10:38:27;;;;;;;0.10;0.10;;;;;;;23.66;39.75;97678.16;4424292;32;20103;-78
2023/08/07 10:41:10;;;;;;;1.20;0.20;;;;;;;22.46;41.77;97675.19;4424479;32;20146;-79
2023/08/07 10:43:39;;;;;;;0.50;0.20;;;;;;;22.40;43.32;97672.31;4410678;32;20142;-79
2023/08/07 10:46:07;;;;;;;0.10;0.10;;;;;;;23.41;41.79;97678.97;4424554;32;20097;-79
2023/08/07 10:48:42;;;;;;;0.10;0.10;;;;;;;23.75;42.33;97678.19;4411104;32;20368;-78
2023/08/07 10:51:13;;;;;;;0.20;0.20;;;;;;;24.99;38.66;97671.25;4424387;32;20120;-80
2023/08/07 10:53:48;;;;;;;1.25;0.20;;;;;;;23.92;39.04;97672.00;4423814;32;20094;-80
2023/08/07 10:56:20;;;;;;;0.15;0.15;;;;;;;23.80;39.12;97671.47;4424721;32;20510;-79
2023/08/07 10:58:51;;;;;;;0.10;0.10;;;;;;;24.31;37.92;97659.16;4410651;32;20100;-77
2023/08/07 11:01:21;;;;;;;0.85;0.10;;;;;;;23.81;37.64;97667.03;4409859;32;20085;-78
2023/08/07 11:03:50;;;;;;;0.77;0.10;;;;;;;23.11;39.77;97659.19;4424587;32;20117;-80
2023/08/07 11:06:19;;;;;;;1.30;0.37;;;;;;;23.74;40.00;97671.28;4424298;32;20422;-79
2023/08/07 11:08:52;;;;;;;1.23;0.20;;;;;;;23.79;39.39;97677.72;4410889;32;20499;-79
2023/08/07 11:11:19;;;;;;;0.20;0.20;;;;;;;23.50;41.04;97671.94;4424438;32;20085;-79
2023/08/07 11:13:46;;;;;;;0.20;0.10;;;;;;;23.39;40.77;97683.53;4424585;32;20146;-79
2023/08/07 11:16:13;;;;;;;0.20;0.20;;;;;;;23.39;40.77;97670.38;4424312;32;20177;-78
2023/08/07 11:18:43;;;;;;;0.55;0.20;;;;;;;23.37;41.24;97681.06;4424757;32;20093;-78
2023/08/07 11:21:11;;;;;;;0.10;0.10;;;;;;;22.39;42.78;97684.66;4410438;32;20164;-79
2023/08/07 11:23:39;;;;;;;0.15;0.15;;;;;;;21.77;43.74;97682.72;4424307;32;20109;-79
2023/08/07 11:26:07;;;;;;;0.30;0.30;;;;;;;21.89;45.22;97681.56;4410576;32;20521;-81
2023/08/07 11:28:34;;;;;;;0.37;0.37;;;;;;;22.13;44.39;97687.16;4424503;32;20085;-78
2023/08/07 11:31:01;;;;;;;0.37;0.20;;;;;;;22.27;44.77;97680.56;4423996;32;20152;-78
2023/08/07 11:33:30;;;;;;;0.45;0.10;;;;;;;23.21;42.68;97685.41;4424503;32;20113;-79
2023/08/07 11:35:58;;;;;;;1.10;0.10;;;;;;;23.03;42.12;97682.78;4423818;32;20116;-79
2023/08/07 11:38:33;;;;;;;0.37;0.20;;;;;;;21.82;44.79;97694.47;4424393;32;20496;-80